createdAt,value
2022-10-28T00:00:12.516Z,46.49
2022-10-28T00:05:19.755Z,46.58
2022-10-28T00:10:26.958Z,46.63
2022-10-28T00:15:34.213Z,46.76
2022-10-28T00:20:41.633Z,46.81
2022-10-28T00:25:48.883Z,46.92
2022-10-28T00:30:56.133Z,46.97
2022-10-28T00:36:04.431Z,47.08
2022-10-28T00:41:10.497Z,47.10
2022-10-28T00:46:17.930Z,47.14
2022-10-28T00:51:25.114Z,47.14
2022-10-28T00:56:32.316Z,47.15
2022-10-28T01:01:39.712Z,47.19
2022-10-28T01:06:46.717Z,47.25
2022-10-28T01:11:53.946Z,47.25
2022-10-28T01:17:01.139Z,47.28
2022-10-28T01:22:08.341Z,47.40
2022-10-28T01:27:15.566Z,47.41
2022-10-28T01:32:22.799Z,47.42
2022-10-28T01:37:29.970Z,47.45
2022-10-28T01:42:37.176Z,47.52
2022-10-28T01:47:44.493Z,47.48
2022-10-28T01:52:52.064Z,47.52
2022-10-28T01:57:58.873Z,47.49
2022-10-28T02:03:06.130Z,47.58
2022-10-28T02:08:13.320Z,47.60
2022-10-28T02:13:20.502Z,47.57
2022-10-28T02:18:27.778Z,47.62
2022-10-28T02:23:34.998Z,47.66
2022-10-28T02:28:42.313Z,47.70
2022-10-28T02:33:49.600Z,47.68
2022-10-28T02:38:56.734Z,47.65
2022-10-28T02:44:03.917Z,47.57
2022-10-28T02:49:11.172Z,47.67
2022-10-28T02:54:18.340Z,47.58
2022-10-28T02:59:25.525Z,47.51
2022-10-28T03:04:32.801Z,47.53
2022-10-28T03:09:39.944Z,47.44
2022-10-28T03:14:47.113Z,47.55
2022-10-28T03:19:54.384Z,47.54
2022-10-28T03:25:01.519Z,47.59
2022-10-28T03:30:08.691Z,47.58
2022-10-28T03:35:16.063Z,47.62
2022-10-28T03:40:23.074Z,47.63
2022-10-28T03:50:37.522Z,47.59
2022-10-28T03:55:44.679Z,47.61
2022-10-28T04:00:51.945Z,47.59
2022-10-28T04:05:59.124Z,47.65
2022-10-28T04:11:06.302Z,47.55
2022-10-28T04:16:13.603Z,47.59
2022-10-28T04:21:20.812Z,47.59
2022-10-28T04:26:27.966Z,47.53
2022-10-28T04:31:35.143Z,47.52
2022-10-28T04:36:42.347Z,47.61
2022-10-28T04:41:49.542Z,47.58
2022-10-28T04:46:56.738Z,47.59
2022-10-28T04:52:04.055Z,47.59
2022-10-28T04:57:11.126Z,47.62
2022-10-28T05:02:18.558Z,47.65
2022-10-28T05:07:25.569Z,47.59
2022-10-28T05:12:32.809Z,47.57
2022-10-28T05:17:40.055Z,47.55
2022-10-28T05:22:47.278Z,47.52
2022-10-28T05:27:54.499Z,47.57
2022-10-28T05:33:02.255Z,47.52
2022-10-28T05:38:08.936Z,47.51
2022-10-28T05:43:16.089Z,47.23
2022-10-28T05:48:23.302Z,47.12
2022-10-28T05:53:30.625Z,46.98
2022-10-28T05:58:37.869Z,46.89
2022-10-28T06:03:45.039Z,46.95
2022-10-28T06:08:52.246Z,46.96
2022-10-28T06:13:57.882Z,46.75
2022-10-28T06:19:05.143Z,46.90
2022-10-28T06:24:12.438Z,46.86
2022-10-28T06:29:19.583Z,46.70
2022-10-28T06:34:26.761Z,46.55
2022-10-28T06:39:33.975Z,46.50
2022-10-28T06:44:41.231Z,46.62
2022-10-28T06:49:49.965Z,46.74
2022-10-28T06:54:57.121Z,46.84
2022-10-28T07:00:04.303Z,46.61
2022-10-28T07:05:11.511Z,46.85
2022-10-28T07:10:18.784Z,46.65
2022-10-28T07:15:26.041Z,46.72
2022-10-28T07:20:33.246Z,46.81
2022-10-28T07:25:40.621Z,46.91
2022-10-28T07:30:47.657Z,46.86
2022-10-28T07:35:54.857Z,46.89
2022-10-28T07:41:02.047Z,47.23
2022-10-28T07:46:09.296Z,47.15
2022-10-28T07:51:16.431Z,47.20
2022-10-28T07:56:23.656Z,47.13
2022-10-28T08:01:30.988Z,47.04
2022-10-28T08:06:38.044Z,46.63
2022-10-28T08:11:45.194Z,46.94
2022-10-28T08:16:52.467Z,46.95
2022-10-28T08:21:59.672Z,47.05
2022-10-28T08:27:06.826Z,47.07
2022-10-28T08:32:14.064Z,47.11
2022-10-28T08:37:21.380Z,47.07
2022-10-28T08:42:28.485Z,47.14
2022-10-28T08:47:35.768Z,47.14
2022-10-28T08:52:42.971Z,47.12
2022-10-28T08:57:50.178Z,47.15
2022-10-28T09:02:57.531Z,47.16
2022-10-28T09:08:04.588Z,46.97
2022-10-28T09:13:12.168Z,46.99
2022-10-28T09:18:19.441Z,47.01
2022-10-28T09:23:26.595Z,47.01
2022-10-28T09:28:33.812Z,46.97
2022-10-28T09:33:41.007Z,46.94
2022-10-28T09:38:48.978Z,46.94
2022-10-28T09:43:56.249Z,47.04
2022-10-28T09:49:03.502Z,47.13
2022-10-28T09:54:10.936Z,47.18
2022-10-28T09:59:18.122Z,47.25
2022-10-28T10:04:25.379Z,47.29
2022-10-28T10:09:32.589Z,47.33
2022-10-28T10:14:39.793Z,47.39
2022-10-28T10:19:50.381Z,47.36
2022-10-28T10:24:54.296Z,47.39
2022-10-28T10:30:01.468Z,47.46
2022-10-28T10:35:08.670Z,47.50
2022-10-28T10:40:15.882Z,47.51
2022-10-28T10:45:23.078Z,47.52
2022-10-28T10:55:37.480Z,47.60
2022-10-28T11:00:44.625Z,47.59
2022-10-28T11:06:05.484Z,47.64
2022-10-28T11:10:59.079Z,47.68
2022-10-28T11:16:06.245Z,47.66
2022-10-28T11:21:13.527Z,47.61
2022-10-28T11:26:20.772Z,47.67
2022-10-28T11:31:27.957Z,47.72
2022-10-28T11:36:35.248Z,47.80
2022-10-28T11:41:45.224Z,47.78
2022-10-28T11:46:52.375Z,47.95
2022-10-28T11:51:59.622Z,48.10
2022-10-28T11:57:06.799Z,48.13
2022-10-28T12:02:14.324Z,48.47
2022-10-28T12:07:21.259Z,48.49
2022-10-28T12:12:28.436Z,48.70
2022-10-28T12:17:35.686Z,48.58
2022-10-28T12:22:42.898Z,48.62
2022-10-28T12:27:50.090Z,48.77
2022-10-28T12:32:57.484Z,48.92
2022-10-28T12:38:04.582Z,49.06
2022-10-28T12:43:11.753Z,49.04
2022-10-28T12:48:18.961Z,49.12
2022-10-28T12:53:26.214Z,49.48
2022-10-28T12:58:33.399Z,49.46
2022-10-28T13:03:40.635Z,49.48
2022-10-28T13:08:47.959Z,49.54
2022-10-28T13:13:55.197Z,49.75
2022-10-28T13:19:02.395Z,49.70
2022-10-28T13:24:09.723Z,49.83
2022-10-28T13:29:16.867Z,49.74
2022-10-28T13:34:26.415Z,49.73
2022-10-28T13:39:33.772Z,49.65
2022-10-28T13:44:40.957Z,49.63
2022-10-28T13:49:48.414Z,49.60
2022-10-28T13:54:55.699Z,49.71
2022-10-28T14:00:02.912Z,49.77
2022-10-28T14:05:10.165Z,49.77
2022-10-28T14:10:20.499Z,49.77
2022-10-28T14:15:24.550Z,49.82
2022-10-28T14:20:31.756Z,49.87
2022-10-28T14:25:38.960Z,49.86
2022-10-28T14:30:46.590Z,49.89
2022-10-28T14:35:53.395Z,49.94
2022-10-28T14:41:00.594Z,50.00
2022-10-28T14:46:07.798Z,50.03
2022-10-28T14:51:14.931Z,50.06
2022-10-28T15:01:29.485Z,50.09
2022-10-28T15:06:36.528Z,50.06
2022-10-28T15:11:43.716Z,50.10
2022-10-28T15:16:50.971Z,50.18
2022-10-28T15:21:59.356Z,50.23
2022-10-28T15:27:05.350Z,50.26
2022-10-28T15:32:12.560Z,50.31
2022-10-28T15:37:19.960Z,50.26
2022-10-28T15:42:27.206Z,50.26
2022-10-28T15:47:34.336Z,50.27
2022-10-28T15:52:41.561Z,50.35
2022-10-28T15:57:48.758Z,50.35
2022-10-28T16:02:56.613Z,50.35
2022-10-28T16:08:03.161Z,50.35
2022-10-28T16:13:11.648Z,50.45
2022-10-28T16:18:17.556Z,50.47
2022-10-28T16:23:24.763Z,50.65
2022-10-28T16:28:32.019Z,50.88
2022-10-28T16:33:39.181Z,50.88
2022-10-28T16:38:46.371Z,50.84
2022-10-28T16:43:53.656Z,50.80
2022-10-28T16:49:00.801Z,50.91
2022-10-28T16:54:08.074Z,51.02
2022-10-28T16:59:15.443Z,51.05
2022-10-28T17:04:22.662Z,51.00
2022-10-28T17:09:29.957Z,51.00
2022-10-28T17:14:37.273Z,51.00
2022-10-28T17:19:44.656Z,51.29
2022-10-28T17:24:52.137Z,51.62
2022-10-28T17:30:00.006Z,51.64
2022-10-28T17:35:07.275Z,51.52
2022-10-28T17:40:15.285Z,51.42
2022-10-28T17:45:22.719Z,51.34
2022-10-28T17:50:30.050Z,51.28
2022-10-28T17:55:37.574Z,51.24
2022-10-28T18:00:45.053Z,51.53
2022-10-28T18:05:52.495Z,51.54
2022-10-28T18:10:59.675Z,51.54
2022-10-28T18:16:06.869Z,51.50
2022-10-28T18:21:14.364Z,51.69
2022-10-28T18:26:22.278Z,51.61
2022-10-28T18:31:29.816Z,51.29
2022-10-28T18:36:37.405Z,51.19
2022-10-28T18:41:45.023Z,51.19
2022-10-28T18:46:52.460Z,51.13
2022-10-28T18:52:00.048Z,51.09
2022-10-28T18:57:07.372Z,51.04
2022-10-28T19:02:14.803Z,51.22
2022-10-28T19:07:21.777Z,51.04
2022-10-28T19:12:29.004Z,50.96
2022-10-28T19:17:36.218Z,51.13
2022-10-28T19:22:43.515Z,51.35
2022-10-28T19:27:51.796Z,51.45
2022-10-28T19:32:59.268Z,51.04
2022-10-28T19:38:06.577Z,50.98
2022-10-28T19:43:13.897Z,50.90
2022-10-28T19:48:21.371Z,50.76
2022-10-28T19:53:28.561Z,50.67
2022-10-28T19:58:35.761Z,50.64
2022-10-28T20:03:48.783Z,50.46
2022-10-28T20:08:50.283Z,50.40
2022-10-28T20:13:57.558Z,50.48
2022-10-28T20:19:04.744Z,50.28
2022-10-28T20:24:12.186Z,50.14
2022-10-28T20:29:19.490Z,49.95
2022-10-28T20:34:26.739Z,49.51
2022-10-28T20:39:34.022Z,49.71
2022-10-28T20:44:41.211Z,49.72
2022-10-28T20:49:48.488Z,49.46
2022-10-28T20:54:55.651Z,49.15
2022-10-28T21:00:02.916Z,48.96
2022-10-28T21:05:10.195Z,48.67
2022-10-28T21:10:17.351Z,48.52
2022-10-28T21:15:24.550Z,48.29
2022-10-28T21:20:31.743Z,48.00
2022-10-28T21:25:38.913Z,47.95
2022-10-28T21:30:46.074Z,47.71
2022-10-28T21:35:53.315Z,47.36
2022-10-28T21:41:00.470Z,46.90
2022-10-28T21:46:07.677Z,46.79
2022-10-28T21:51:15.508Z,46.72
2022-10-28T21:56:22.102Z,46.42
2022-10-28T22:01:29.371Z,46.17
2022-10-28T22:06:36.587Z,45.85
2022-10-28T22:11:43.701Z,45.66
2022-10-28T22:16:50.898Z,45.71
2022-10-28T22:21:58.136Z,45.17
2022-10-28T22:27:05.311Z,45.27
2022-10-28T22:32:12.455Z,45.27
2022-10-28T22:37:19.718Z,44.80
2022-10-28T22:42:26.949Z,44.98
2022-10-28T22:47:34.131Z,44.81
2022-10-28T22:52:41.375Z,44.66
2022-10-28T22:57:48.578Z,44.77
2022-10-28T23:02:56.170Z,44.40
2022-10-28T23:08:03.150Z,44.27
2022-10-28T23:13:10.327Z,44.01
2022-10-28T23:18:17.583Z,43.99
2022-10-28T23:23:24.784Z,44.64
2022-10-28T23:28:32.010Z,44.79
2022-10-28T23:33:39.178Z,44.93
2022-10-28T23:38:46.561Z,45.14
2022-10-28T23:43:53.794Z,45.30
2022-10-28T23:49:01.088Z,45.53
2022-10-28T23:54:08.279Z,45.73
2022-10-28T23:59:15.509Z,45.91
